Terminal Aerodrome Forecast
Issued by NWS Portland, OR

Home | Current Version | Previous Version | Text Only | Print | Product List | Glossary On
Versions: 1 2 3 4 5 6 7 8 9 10 11 12 13 14 15 16 17 18 19 20 21 22 23 24 25 26 27 28 29
000
FTUS46 KPQR 052320
TAFEUG
TAF
KEUG 052320Z 0600/0624 28007KT P6SM -SHRA SCT025 BKN050
     FM060300 VRB03KT P6SM VCSH FEW025 SCT050
      TEMPO 0612/0616 5SM BR FEW012 BKN025
     FM061800 35006KT P6SM -SHRA SCT025 BKN050=

USA.gov is the U.S. government's official web portal to all federal, state and local government web resources and services.